Time;durP1;ratioP1;P1;durP2;ratioP2;P2;SDS_P1;SDS_P2;PMS_P1;PMS_P2;Temp;Humidity;BMP_temperature;BMP_pressure;BME280_temperature;BME280_humidity;BME280_pressure;Samples;Min_cycle;Max_cycle;Signal;HPM_P1;HPM_P2
2023/12/28 00:01:45;;;;;;;4.78;2.35;;;;;;;9.37;78.69;99068.41;4973955;28;20051;-80
2023/12/28 00:04:12;;;;;;;5.07;2.35;;;;;;;9.39;78.80;99071.78;4974591;28;20105;-80
2023/12/28 00:06:39;;;;;;;3.25;2.35;;;;;;;9.43;78.76;99075.06;4974454;28;20047;-80
2023/12/28 00:09:06;;;;;;;3.22;2.38;;;;;;;9.48;78.90;99074.75;4973019;28;20361;-80
2023/12/28 00:11:38;;;;;;;5.32;2.40;;;;;;;9.54;79.16;99087.53;4953861;28;20134;-80
2023/12/28 00:14:04;;;;;;;3.75;2.25;;;;;;;9.55;78.96;99076.06;4953926;28;20059;-82
2023/12/28 00:16:37;;;;;;;5.10;2.30;;;;;;;9.59;78.78;99076.72;4955235;28;20059;-80
2023/12/28 00:19:04;;;;;;;5.22;2.40;;;;;;;9.63;78.96;99060.66;4969930;28;20058;-80
2023/12/28 00:21:31;;;;;;;4.20;2.25;;;;;;;9.65;78.32;99078.97;4972038;28;20054;-80
2023/12/28 00:23:57;;;;;;;5.20;2.70;;;;;;;9.69;78.83;99072.56;4973822;28;20177;-80
2023/12/28 00:26:24;;;;;;;5.40;2.50;;;;;;;9.71;78.40;99086.44;4973599;28;20478;-79
2023/12/28 00:28:51;;;;;;;3.05;2.58;;;;;;;9.75;78.74;99068.69;4973401;28;20579;-80
2023/12/28 00:33:50;;;;;;;3.90;2.30;;;;;;;9.78;78.61;99077.22;4925565;23;20051;-77
2023/12/28 00:36:16;;;;;;;6.95;2.50;;;;;;;9.83;78.49;99063.75;4972305;28;20534;-76
2023/12/28 00:38:43;;;;;;;4.13;2.17;;;;;;;9.87;78.73;99072.31;4973960;28;20142;-76
2023/12/28 00:41:10;;;;;;;4.70;2.35;;;;;;;9.90;78.67;99086.09;4973472;28;20475;-76
2023/12/28 00:43:36;;;;;;;6.97;2.58;;;;;;;9.91;78.57;99072.00;4955993;28;20507;-77
2023/12/28 00:46:03;;;;;;;4.93;2.25;;;;;;;9.93;78.43;99065.78;4955018;28;20047;-76
2023/12/28 00:48:30;;;;;;;5.82;2.50;;;;;;;9.93;78.10;99071.91;4953527;28;20489;-77
2023/12/28 00:50:58;;;;;;;4.88;2.78;;;;;;;9.95;78.50;99071.81;4956296;28;20142;-79
2023/12/28 00:53:26;;;;;;;5.22;2.67;;;;;;;9.95;78.34;99074.44;4973254;28;20492;-77
2023/12/28 00:55:53;;;;;;;4.10;2.20;;;;;;;9.97;78.35;99073.38;4974122;28;20055;-77
2023/12/28 00:58:19;;;;;;;7.40;3.05;;;;;;;9.95;78.16;99075.28;4973652;28;20055;-76
2023/12/28 01:00:46;;;;;;;2.83;2.38;;;;;;;9.94;77.99;99070.94;4974042;28;20082;-75
2023/12/28 01:03:13;;;;;;;5.32;2.25;;;;;;;9.96;78.27;99076.09;4955118;28;20047;-77
2023/12/28 01:05:40;;;;;;;4.63;2.42;;;;;;;9.95;78.34;99080.53;4952735;28;20053;-74
2023/12/28 01:08:06;;;;;;;6.30;2.88;;;;;;;9.95;78.41;99080.53;4953763;28;20146;-76
2023/12/28 01:10:33;;;;;;;5.35;2.80;;;;;;;9.93;78.12;99089.44;4954208;28;20094;-76
2023/12/28 01:12:59;;;;;;;3.65;2.58;;;;;;;9.92;78.39;99083.38;4966630;28;20047;-75
2023/12/28 01:15:26;;;;;;;4.03;2.78;;;;;;;9.93;78.45;99094.72;4973124;28;20050;-76
2023/12/28 01:17:53;;;;;;;5.75;2.85;;;;;;;9.94;78.57;99106.94;4971784;28;20054;-76
2023/12/28 01:20:20;;;;;;;4.68;2.70;;;;;;;9.96;78.50;99110.28;4973054;28;20050;-76
2023/12/28 01:22:46;;;;;;;6.70;3.05;;;;;;;9.94;78.46;99133.22;4972739;28;20226;-74
2023/12/28 01:25:13;;;;;;;5.07;2.88;;;;;;;9.94;78.56;99122.72;4972720;28;20101;-76
2023/12/28 01:27:39;;;;;;;3.83;2.80;;;;;;;9.95;78.72;99133.13;4971864;28;20059;-76
2023/12/28 01:30:07;;;;;;;7.60;2.78;;;;;;;9.94;78.57;99128.78;4972995;28;20105;-77
2023/12/28 01:32:33;;;;;;;6.40;3.03;;;;;;;9.94;78.68;99138.47;4972734;28;20050;-77
2023/12/28 01:35:00;;;;;;;6.90;3.25;;;;;;;9.95;78.73;99133.13;4972656;28;20047;-77
2023/12/28 01:37:30;;;;;;;4.55;2.75;;;;;;;9.95;78.68;99146.28;4957810;28;20082;-76
2023/12/28 01:39:57;;;;;;;5.78;3.10;;;;;;;9.96;78.30;99141.84;4953297;28;20501;-75
2023/12/28 01:42:23;;;;;;;8.00;3.40;;;;;;;9.96;78.73;99147.09;4953369;28;20708;-75
2023/12/28 01:44:50;;;;;;;3.67;2.60;;;;;;;9.96;78.69;99147.94;4953507;29;20055;-78
2023/12/28 01:47:17;;;;;;;8.55;3.20;;;;;;;9.96;78.88;99155.84;4953391;28;20481;-76
2023/12/28 01:49:44;;;;;;;5.00;2.75;;;;;;;9.98;78.88;99164.47;4953204;28;20055;-73
2023/12/28 01:52:11;;;;;;;5.30;3.22;;;;;;;9.98;78.84;99153.13;4953095;28;20098;-77
2023/12/28 01:54:39;;;;;;;6.15;2.95;;;;;;;10.01;78.96;99166.03;4953280;28;20051;-76
2023/12/28 01:59:46;;;;;;;3.50;2.90;;;;;;;10.02;78.85;99154.59;4913019;29;20045;-75
2023/12/28 02:02:14;;;;;;;4.35;2.83;;;;;;;10.00;78.57;99157.31;4914844;29;20087;-77
2023/12/28 02:04:40;;;;;;;4.80;3.00;;;;;;;10.04;79.04;99150.06;4915391;29;20138;-78
2023/12/28 02:07:08;;;;;;;5.45;3.13;;;;;;;10.03;78.70;99145.78;4914671;29;20048;-76
2023/12/28 02:09:35;;;;;;;4.88;2.75;;;;;;;10.07;78.96;99149.03;4914658;29;20107;-77
2023/12/28 02:12:02;;;;;;;4.43;2.80;;;;;;;10.10;78.97;99154.09;4914785;29;20509;-75
2023/12/28 02:14:29;;;;;;;6.40;2.97;;;;;;;10.13;78.98;99154.75;4914991;29;20048;-77
2023/12/28 02:17:18;;;;;;;5.70;2.92;;;;;;;10.11;77.21;99155.78;4913854;29;20048;-78
2023/12/28 02:19:51;;;;;;;5.82;3.03;;;;;;;10.13;78.08;99149.47;4914967;29;20056;-78
2023/12/28 02:22:18;;;;;;;4.88;2.78;;;;;;;10.19;78.86;99163.16;4914607;29;20052;-74
2023/12/28 02:25:07;;;;;;;4.80;3.00;;;;;;;10.15;77.05;99159.91;4914760;29;20051;-73
2023/12/28 02:27:37;;;;;;;4.13;2.80;;;;;;;10.19;78.00;99165.78;4913314;29;20084;-75
2023/12/28 02:30:06;;;;;;;6.05;3.00;;;;;;;10.20;78.25;99180.66;4913618;29;20574;-74
2023/12/28 02:32:36;;;;;;;7.25;3.33;;;;;;;10.21;78.25;99167.38;4914646;29;20056;-77
2023/12/28 02:35:14;;;;;;;5.00;2.88;;;;;;;10.20;77.96;99165.69;4914632;29;20533;-75
2023/12/28 02:37:44;;;;;;;4.97;3.00;;;;;;;10.22;78.74;99165.59;4914111;29;20060;-75
2023/12/28 02:40:13;;;;;;;4.57;2.95;;;;;;;10.23;78.95;99164.66;4914341;29;20058;-77
2023/12/28 02:42:39;;;;;;;5.78;3.00;;;;;;;10.24;78.99;99174.25;4913159;29;20058;-73
2023/12/28 02:45:06;;;;;;;5.85;3.13;;;;;;;10.24;78.83;99172.44;4914586;29;20108;-76
2023/12/28 02:47:33;;;;;;;6.13;3.25;;;;;;;10.26;79.00;99173.22;4913998;29;20052;-76
2023/12/28 02:49:59;;;;;;;8.65;3.30;;;;;;;10.25;79.00;99168.88;4914195;29;20112;-78
2023/12/28 02:52:26;;;;;;;4.63;3.00;;;;;;;10.25;79.00;99166.22;4914473;29;20091;-76
2023/12/28 02:54:52;;;;;;;4.78;3.15;;;;;;;10.28;79.22;99165.22;4914548;29;20172;-73
2023/12/28 02:57:19;;;;;;;3.95;2.90;;;;;;;10.28;79.07;99173.94;4914598;29;20048;-77
2023/12/28 02:59:45;;;;;;;5.00;2.83;;;;;;;10.29;79.08;99167.72;4917863;29;20084;-75
2023/12/28 03:02:12;;;;;;;3.67;2.70;;;;;;;10.29;79.14;99159.84;4917900;29;20115;-76
2023/12/28 03:04:38;;;;;;;4.60;3.15;;;;;;;10.31;79.09;99159.75;4918162;29;20060;-78
2023/12/28 03:07:06;;;;;;;3.78;2.58;;;;;;;10.30;79.07;99164.19;4917712;29;20060;-76
2023/12/28 03:09:32;;;;;;;4.60;3.00;;;;;;;10.29;78.98;99159.00;4917889;29;20143;-76
2023/12/28 03:11:59;;;;;;;5.88;3.10;;;;;;;10.30;79.21;99158.91;4917922;29;20051;-77
2023/12/28 03:14:26;;;;;;;8.82;3.13;;;;;;;10.32;79.12;99150.06;4917918;29;20051;-77
2023/12/28 03:16:52;;;;;;;6.53;2.97;;;;;;;10.34;79.52;99143.75;4917846;29;20051;-74
2023/12/28 03:19:18;;;;;;;3.92;2.80;;;;;;;10.38;79.61;99160.19;4917303;29;20048;-77
2023/12/28 03:21:45;;;;;;;4.82;2.65;;;;;;;10.41;79.75;99147.69;4917892;29;20044;-78
2023/12/28 03:24:12;;;;;;;4.40;2.83;;;;;;;10.43;79.59;99143.16;4917945;29;20052;-73
2023/12/28 03:26:38;;;;;;;4.30;2.70;;;;;;;10.49;79.71;99147.19;4917939;29;20067;-78
2023/12/28 03:29:06;;;;;;;5.22;2.70;;;;;;;10.52;79.67;99144.38;4917072;29;20127;-77
2023/12/28 03:31:32;;;;;;;6.88;2.90;;;;;;;10.55;79.29;99144.13;4917484;29;20062;-74
2023/12/28 03:33:59;;;;;;;8.57;3.22;;;;;;;10.55;79.31;99133.63;4917680;29;20155;-77
2023/12/28 03:36:26;;;;;;;4.50;2.53;;;;;;;10.59;78.96;99131.63;4917738;29;20044;-76
2023/12/28 03:38:52;;;;;;;4.53;3.00;;;;;;;10.61;78.84;99142.06;4916987;29;20140;-77
2023/12/28 03:41:19;;;;;;;5.22;3.10;;;;;;;10.60;78.56;99135.94;4917464;29;20055;-76
2023/12/28 03:43:47;;;;;;;7.60;3.28;;;;;;;10.61;78.33;99124.47;4917389;29;20134;-77
2023/12/28 03:46:13;;;;;;;4.68;2.70;;;;;;;10.58;78.03;99122.03;4917386;29;20092;-77
2023/12/28 03:48:40;;;;;;;5.82;2.97;;;;;;;10.55;78.37;99117.81;4917157;29;20048;-75
2023/12/28 03:51:07;;;;;;;6.35;3.45;;;;;;;10.53;78.42;99116.25;4917399;29;20085;-78
2023/12/28 03:53:34;;;;;;;6.32;3.03;;;;;;;10.50;78.01;99104.13;4917540;29;20095;-77
2023/12/28 03:56:01;;;;;;;5.03;3.03;;;;;;;10.50;78.35;99124.38;4917307;29;20056;-76
2023/12/28 03:58:27;;;;;;;7.25;3.78;;;;;;;10.49;78.41;99127.91;4917025;29;20135;-76
2023/12/28 04:00:54;;;;;;;6.07;3.08;;;;;;;10.47;78.64;99122.75;4916889;29;20056;-75
2023/12/28 04:03:20;;;;;;;4.60;3.25;;;;;;;10.46;78.55;99123.72;4917174;29;20088;-77
2023/12/28 04:05:47;;;;;;;5.95;3.42;;;;;;;10.42;78.67;99114.31;4917200;29;20486;-78
2023/12/28 04:08:13;;;;;;;9.00;3.45;;;;;;;10.42;78.82;99117.78;4916725;29;20056;-76
2023/12/28 04:10:40;;;;;;;5.28;3.15;;;;;;;10.41;79.04;99126.63;4915700;29;20557;-73
2023/12/28 04:13:06;;;;;;;4.57;2.88;;;;;;;10.43;79.28;99137.03;4916745;29;20056;-77
2023/12/28 04:15:33;;;;;;;5.10;3.20;;;;;;;10.43;79.13;99152.81;4916843;29;20164;-78
2023/12/28 04:17:59;;;;;;;4.80;3.13;;;;;;;10.47;79.54;99140.34;4916614;29;20055;-77
2023/12/28 04:20:26;;;;;;;7.03;3.25;;;;;;;10.47;79.28;99138.53;4916528;29;20473;-77
2023/12/28 04:22:53;;;;;;;3.53;2.58;;;;;;;10.50;79.40;99127.81;4916691;29;20584;-78
2023/12/28 04:25:20;;;;;;;7.15;3.22;;;;;;;10.53;79.56;99139.94;4916688;29;20056;-76
2023/12/28 04:27:47;;;;;;;6.38;3.25;;;;;;;10.55;79.51;99132.78;4916663;29;20131;-76
2023/12/28 04:30:13;;;;;;;7.53;3.20;;;;;;;10.57;79.30;99128.25;4922292;29;20059;-78
2023/12/28 04:32:40;;;;;;;7.32;3.33;;;;;;;10.62;79.35;99130.59;4916339;29;20044;-72
2023/12/28 04:35:07;;;;;;;9.35;3.08;;;;;;;10.64;79.15;99140.06;4916595;29;20067;-75
2023/12/28 04:37:34;;;;;;;6.15;3.30;;;;;;;10.66;79.19;99125.00;4915370;29;20052;-77
2023/12/28 04:40:01;;;;;;;6.50;3.20;;;;;;;10.67;79.12;99126.69;4916406;29;20165;-77
2023/12/28 04:42:27;;;;;;;9.65;3.78;;;;;;;10.68;79.00;99152.06;4916058;29;20131;-77
2023/12/28 04:44:54;;;;;;;8.93;3.38;;;;;;;10.67;78.90;99133.75;4916595;29;20425;-78
2023/12/28 04:47:20;;;;;;;6.90;2.95;;;;;;;10.69;79.12;99116.91;4916502;29;20151;-77
2023/12/28 04:49:46;;;;;;;4.28;3.03;;;;;;;10.74;79.25;99132.41;4916154;29;20277;-77
2023/12/28 04:52:13;;;;;;;7.28;3.47;;;;;;;10.78;79.15;99136.50;4915982;29;20415;-73
2023/12/28 04:54:40;;;;;;;6.57;3.10;;;;;;;10.85;79.25;99138.69;4915044;29;20399;-76
2023/12/28 04:57:10;;;;;;;6.85;3.15;;;;;;;10.89;79.18;99116.47;4914868;29;20561;-76
2023/12/28 04:59:40;;;;;;;8.05;3.03;;;;;;;10.91;77.82;99139.13;4916055;29;20493;-77
2023/12/28 05:02:07;;;;;;;6.32;3.08;;;;;;;10.95;78.08;99127.44;4915651;29;20048;-77
2023/12/28 05:04:38;;;;;;;8.35;2.40;;;;;;;10.99;78.16;99122.78;4916141;29;20074;-76
2023/12/28 05:07:04;;;;;;;9.35;3.33;;;;;;;11.04;78.67;99127.75;4915909;29;20060;-76
2023/12/28 05:09:31;;;;;;;8.35;2.83;;;;;;;11.07;78.42;99128.38;4915621;29;20060;-78
2023/12/28 05:11:57;;;;;;;7.82;2.80;;;;;;;11.12;78.46;99124.56;4915979;29;20054;-77
2023/12/28 05:14:24;;;;;;;5.95;2.80;;;;;;;11.14;78.14;99128.78;4915997;29;20473;-77
2023/12/28 05:16:50;;;;;;;8.32;3.10;;;;;;;11.15;77.95;99130.50;4915663;29;20209;-77
2023/12/28 05:19:17;;;;;;;9.73;2.97;;;;;;;11.15;77.88;99122.59;4915578;29;20055;-78
2023/12/28 05:21:44;;;;;;;8.02;2.80;;;;;;;11.19;78.16;99141.66;4915276;29;20091;-78
2023/12/28 05:24:11;;;;;;;8.50;2.55;;;;;;;11.23;77.85;99142.28;4915448;29;20512;-77
2023/12/28 05:26:37;;;;;;;13.48;2.80;;;;;;;11.24;77.48;99138.69;4915457;29;20052;-76
2023/12/28 05:29:04;;;;;;;10.10;2.55;;;;;;;11.26;77.66;99135.00;4914208;29;20052;-74
2023/12/28 05:31:30;;;;;;;6.55;2.70;;;;;;;11.28;77.40;99138.38;4915446;29;20056;-76
2023/12/28 05:33:58;;;;;;;5.70;2.08;;;;;;;11.32;77.55;99136.34;4915536;29;20048;-77
2023/12/28 05:36:25;;;;;;;11.60;3.53;;;;;;;11.36;77.48;99155.44;4915103;29;20513;-76
2023/12/28 05:38:51;;;;;;;9.35;2.63;;;;;;;11.38;77.33;99156.16;4914971;29;20052;-76
2023/12/28 05:41:18;;;;;;;12.35;2.75;;;;;;;11.37;77.03;99134.25;4915546;29;20104;-78
2023/12/28 05:43:44;;;;;;;9.88;2.55;;;;;;;11.42;77.22;99142.69;4915239;29;20052;-77
2023/12/28 05:46:11;;;;;;;6.18;2.30;;;;;;;11.44;76.89;99161.03;4915340;29;20052;-77
2023/12/28 05:48:37;;;;;;;8.60;2.67;;;;;;;11.47;76.98;99171.31;4914719;29;20143;-77
2023/12/28 05:51:04;;;;;;;12.70;3.20;;;;;;;11.49;76.77;99176.50;4915182;29;20060;-78
2023/12/28 05:53:31;;;;;;;8.48;2.63;;;;;;;11.51;76.97;99174.59;4915426;29;20083;-77
2023/12/28 05:56:02;;;;;;;9.07;2.15;;;;;;;11.53;76.65;99180.59;4914175;29;20087;-77
2023/12/28 05:58:28;;;;;;;10.63;2.72;;;;;;;11.55;76.45;99187.44;4914765;29;20052;-77
2023/12/28 06:00:55;;;;;;;8.27;2.25;;;;;;;11.58;76.55;99173.19;4914949;29;20379;-78
2023/12/28 06:03:21;;;;;;;9.15;2.50;;;;;;;11.59;76.33;99181.00;4914123;29;20066;-77
2023/12/28 06:05:48;;;;;;;6.93;2.40;;;;;;;11.62;76.16;99179.13;4914674;29;20052;-77
2023/12/28 06:08:15;;;;;;;9.68;2.67;;;;;;;11.65;76.07;99186.78;4914796;29;20083;-77
2023/12/28 06:10:41;;;;;;;8.25;2.85;;;;;;;11.67;76.16;99203.34;4915048;29;20058;-77
2023/12/28 06:13:07;;;;;;;13.70;2.75;;;;;;;11.67;75.93;99180.44;4914248;29;20052;-78
2023/12/28 06:15:34;;;;;;;9.00;2.45;;;;;;;11.70;76.19;99160.97;4914792;29;20156;-79
2023/12/28 06:18:01;;;;;;;17.80;2.85;;;;;;;11.72;76.09;99181.00;4913142;29;20103;-77
2023/12/28 06:20:28;;;;;;;6.97;2.53;;;;;;;11.76;75.92;99188.66;4913491;29;20089;-76
2023/12/28 06:22:55;;;;;;;6.60;2.20;;;;;;;11.77;76.00;99193.00;4913160;29;20082;-77
2023/12/28 06:25:21;;;;;;;7.35;2.35;;;;;;;11.77;75.81;99196.47;4914336;29;20115;-77
2023/12/28 06:27:48;;;;;;;8.43;2.88;;;;;;;11.79;76.14;99188.44;4914643;29;20131;-75
2023/12/28 06:32:53;;;;;;;10.02;2.63;;;;;;;11.76;75.69;99196.56;5197080;23;20109;-80
2023/12/28 06:35:20;;;;;;;10.15;2.83;;;;;;;11.76;75.41;99192.16;4991100;28;20046;-81
2023/12/28 06:37:46;;;;;;;7.55;2.35;;;;;;;11.79;75.76;99202.50;4989924;28;20108;-81
2023/12/28 06:40:13;;;;;;;10.20;2.95;;;;;;;11.79;75.47;99217.47;4989814;28;20117;-81
2023/12/28 06:42:43;;;;;;;11.05;2.50;;;;;;;11.80;75.83;99203.31;4990972;28;20137;-82
2023/12/28 06:45:10;;;;;;;7.75;2.50;;;;;;;11.78;75.21;99199.97;4981394;28;20100;-81
2023/12/28 06:47:37;;;;;;;8.70;2.97;;;;;;;11.79;75.36;99194.59;4990068;28;20046;-81
2023/12/28 06:50:04;;;;;;;5.75;2.13;;;;;;;11.79;75.11;99186.66;4990147;28;20050;-81
2023/12/28 06:52:31;;;;;;;10.15;2.72;;;;;;;11.79;74.86;99191.09;4991293;28;20059;-81
2023/12/28 06:54:58;;;;;;;14.23;2.92;;;;;;;11.80;75.11;99184.84;4979610;28;20059;-81
2023/12/28 06:57:24;;;;;;;8.80;2.30;;;;;;;11.80;74.94;99188.34;4970362;28;20054;-80
2023/12/28 06:59:52;;;;;;;12.80;2.63;;;;;;;11.82;74.82;99202.25;4970282;28;20054;-81
2023/12/28 07:02:18;;;;;;;7.70;2.78;;;;;;;11.82;74.80;99183.78;4970587;28;20051;-82
2023/12/28 07:04:45;;;;;;;7.82;2.53;;;;;;;11.82;74.88;99189.06;4978664;28;20555;-83
2023/12/28 07:07:12;;;;;;;7.18;2.55;;;;;;;11.83;74.88;99188.13;4990469;28;20050;-81
2023/12/28 07:09:38;;;;;;;7.75;2.42;;;;;;;11.83;74.80;99192.56;4989667;28;20057;-84
2023/12/28 07:12:05;;;;;;;8.90;2.35;;;;;;;11.80;74.67;99204.16;4991042;28;20053;-81
2023/12/28 07:14:32;;;;;;;13.95;2.83;;;;;;;11.80;74.25;99183.06;4988113;28;20054;-81
2023/12/28 07:16:58;;;;;;;8.48;2.45;;;;;;;11.80;74.00;99198.03;4971659;28;20053;-82
2023/12/28 07:19:25;;;;;;;9.13;2.65;;;;;;;11.81;74.34;99203.22;4971711;28;20469;-85
2023/12/28 07:21:52;;;;;;;11.07;2.35;;;;;;;11.82;74.46;99198.78;4971673;28;20736;-82
2023/12/28 07:24:19;;;;;;;8.20;2.25;;;;;;;11.79;73.87;99205.13;4971481;28;20050;-82
2023/12/28 07:26:45;;;;;;;11.40;2.50;;;;;;;11.80;74.13;99206.81;4975759;28;20133;-81
2023/12/28 07:29:12;;;;;;;8.45;2.20;;;;;;;11.81;74.08;99208.47;4971175;28;20478;-81
2023/12/28 07:31:38;;;;;;;10.02;2.50;;;;;;;11.83;73.98;99203.09;4971040;28;20666;-81
2023/12/28 07:34:05;;;;;;;7.57;2.92;;;;;;;11.82;74.09;99201.44;4969432;28;20046;-82
2023/12/28 07:36:32;;;;;;;10.32;2.88;;;;;;;11.84;74.01;99186.31;4978111;28;20058;-81
2023/12/28 07:38:59;;;;;;;9.95;2.60;;;;;;;11.83;73.55;99197.84;4988395;28;20061;-82
2023/12/28 07:41:26;;;;;;;10.45;2.38;;;;;;;11.86;73.97;99202.91;4989743;28;20042;-81
2023/12/28 07:43:52;;;;;;;8.13;2.40;;;;;;;11.85;73.93;99199.41;4990906;28;20494;-85
2023/12/28 07:46:19;;;;;;;9.23;2.47;;;;;;;11.86;73.82;99203.72;4989901;28;20700;-83
2023/12/28 07:48:45;;;;;;;9.63;2.33;;;;;;;11.86;73.52;99213.44;4972277;28;20134;-81
2023/12/28 07:51:13;;;;;;;11.73;2.58;;;;;;;11.84;73.07;99223.25;4973583;28;20503;-80
2023/12/28 07:53:40;;;;;;;10.40;2.55;;;;;;;11.85;74.00;99228.41;4973494;28;20117;-82
2023/12/28 07:56:07;;;;;;;9.32;2.50;;;;;;;11.84;73.63;99215.34;4972258;28;20047;-81
2023/12/28 07:58:34;;;;;;;19.60;2.70;;;;;;;11.84;73.58;99200.38;4990792;28;20109;-81
2023/12/28 08:01:25;;;;;;;7.88;2.90;;;;;;;11.82;73.59;99233.91;5067847;28;20386;-80
2023/12/28 08:03:52;;;;;;;9.05;2.47;;;;;;;11.85;73.83;99235.50;5067717;28;20481;-80
2023/12/28 08:06:19;;;;;;;12.88;2.40;;;;;;;11.85;73.65;99217.03;5066587;28;20052;-80
2023/12/28 08:08:45;;;;;;;12.93;2.67;;;;;;;11.86;73.81;99213.44;5066003;28;20053;-79
2023/12/28 08:11:12;;;;;;;8.02;1.92;;;;;;;11.85;73.51;99228.41;5067604;28;20084;-78
2023/12/28 08:13:39;;;;;;;9.48;2.05;;;;;;;11.86;73.36;99227.44;5067523;28;20056;-80
2023/12/28 08:16:06;;;;;;;8.05;2.17;;;;;;;11.88;73.68;99229.16;5065797;28;20486;-83
2023/12/28 08:18:33;;;;;;;10.90;2.75;;;;;;;11.89;73.32;99236.13;5066916;28;20040;-79
2023/12/28 08:21:00;;;;;;;10.32;2.53;;;;;;;11.88;72.73;99235.25;5065993;28;20143;-80
2023/12/28 08:23:27;;;;;;;7.90;2.65;;;;;;;11.89;73.23;99217.66;5067524;28;20139;-78
2023/12/28 08:25:53;;;;;;;11.15;2.53;;;;;;;11.88;73.37;99222.06;5067739;28;20080;-78
2023/12/28 08:28:20;;;;;;;9.93;2.40;;;;;;;11.90;73.26;99245.72;5066496;28;20068;-78
2023/12/28 08:30:46;;;;;;;9.38;2.05;;;;;;;11.92;73.35;99243.81;5065987;28;20049;-80
2023/12/28 08:33:13;;;;;;;9.30;2.53;;;;;;;11.92;73.47;99225.34;5065619;28;20052;-79
2023/12/28 08:35:40;;;;;;;9.18;2.50;;;;;;;11.92;73.59;99249.91;5065971;28;20049;-80
2023/12/28 08:38:06;;;;;;;9.73;1.73;;;;;;;11.94;73.74;99244.53;5067002;28;20465;-80
2023/12/28 08:40:33;;;;;;;7.68;2.30;;;;;;;11.96;73.87;99248.75;5066100;28;20049;-83
2023/12/28 08:43:00;;;;;;;13.70;3.75;;;;;;;11.96;73.74;99250.56;5066430;28;20098;-80
2023/12/28 08:45:26;;;;;;;13.68;2.55;;;;;;;11.95;73.47;99264.69;5065400;28;20114;-80
2023/12/28 08:47:53;;;;;;;11.48;2.30;;;;;;;11.97;73.78;99257.53;5066673;28;20072;-80
2023/12/28 08:50:20;;;;;;;8.23;2.20;;;;;;;11.95;73.23;99249.72;5066854;28;20049;-81
2023/12/28 08:52:46;;;;;;;12.20;2.42;;;;;;;11.96;73.64;99256.66;5066474;28;20049;-82
2023/12/28 08:55:13;;;;;;;13.50;3.05;;;;;;;11.95;73.43;99267.31;5066783;28;20057;-80
2023/12/28 08:57:40;;;;;;;14.27;3.25;;;;;;;11.98;73.58;99259.19;5066751;28;20044;-80
2023/12/28 09:00:10;;;;;;;11.75;2.53;;;;;;;11.97;73.41;99254.88;5066668;28;20144;-80
2023/12/28 09:02:37;;;;;;;8.52;2.70;;;;;;;12.00;73.60;99257.28;5065026;28;20053;-82
2023/12/28 09:05:04;;;;;;;10.70;2.55;;;;;;;11.99;72.94;99259.09;5066417;28;20485;-79
2023/12/28 09:07:31;;;;;;;16.90;2.67;;;;;;;12.03;73.76;99266.78;5066449;28;20061;-80
2023/12/28 09:09:58;;;;;;;11.93;3.00;;;;;;;12.05;74.09;99256.97;5066470;28;20048;-80
2023/12/28 09:12:24;;;;;;;14.25;3.35;;;;;;;12.04;73.65;99256.09;5054617;28;20106;-80
2023/12/28 09:14:52;;;;;;;12.85;3.08;;;;;;;12.03;73.21;99245.69;5052873;28;20102;-81
2023/12/28 09:17:22;;;;;;;9.60;2.60;;;;;;;12.04;72.44;99240.28;5053093;28;20053;-81
2023/12/28 09:19:49;;;;;;;14.52;3.65;;;;;;;12.07;73.52;99240.09;5051951;28;20075;-81
2023/12/28 09:22:16;;;;;;;16.15;2.88;;;;;;;12.03;71.94;99245.69;5053319;28;20057;-79
2023/12/28 09:24:43;;;;;;;14.93;2.92;;;;;;;12.04;72.62;99237.66;5051255;28;20507;-79
2023/12/28 09:27:09;;;;;;;12.48;2.90;;;;;;;12.06;72.39;99238.44;5053151;28;20149;-82
2023/12/28 09:29:36;;;;;;;12.60;3.38;;;;;;;12.11;72.95;99243.34;5051333;28;20501;-80
2023/12/28 09:32:03;;;;;;;16.20;3.08;;;;;;;12.14;72.55;99258.16;5052750;28;20064;-80
2023/12/28 09:34:30;;;;;;;14.27;2.95;;;;;;;12.13;72.44;99249.38;5051022;28;20049;-81
2023/12/28 09:36:57;;;;;;;10.48;2.58;;;;;;;12.15;72.56;99242.19;5053081;28;20054;-80
2023/12/28 09:39:24;;;;;;;13.45;3.38;;;;;;;12.17;72.73;99255.25;5052844;28;20055;-80
2023/12/28 09:41:59;;;;;;;19.23;3.80;;;;;;;12.15;70.01;99254.53;5052349;28;20051;-81
2023/12/28 09:44:26;;;;;;;16.48;2.97;;;;;;;12.17;72.39;99263.19;5052283;28;20048;-79
2023/12/28 09:46:55;;;;;;;14.40;2.70;;;;;;;12.19;72.50;99280.59;5052518;28;20180;-81
2023/12/28 09:49:22;;;;;;;19.80;3.08;;;;;;;12.22;72.59;99292.72;5051388;28;20049;-80
2023/12/28 09:51:49;;;;;;;16.38;3.20;;;;;;;12.22;72.47;99266.31;5052164;28;20063;-81
2023/12/28 09:54:18;;;;;;;13.02;3.88;;;;;;;12.22;71.99;99264.53;5052096;28;20053;-79
2023/12/28 09:56:45;;;;;;;16.55;3.20;;;;;;;12.23;71.80;99270.66;5051349;28;20060;-80
2023/12/28 09:59:15;;;;;;;11.20;3.20;;;;;;;12.25;72.75;99282.81;5050386;28;20103;-81
2023/12/28 10:01:42;;;;;;;16.42;3.08;;;;;;;12.27;72.63;99274.78;5051042;28;20445;-81
2023/12/28 10:04:09;;;;;;;15.20;2.65;;;;;;;12.29;71.94;99275.50;5052357;28;20068;-79
2023/12/28 10:06:36;;;;;;;12.65;3.20;;;;;;;12.27;71.62;99280.06;5052526;28;20052;-80
2023/12/28 10:09:03;;;;;;;14.90;2.90;;;;;;;12.29;71.70;99299.25;5051959;28;20077;-80
2023/12/28 10:11:30;;;;;;;14.40;3.03;;;;;;;12.33;72.06;99276.97;5051603;28;20134;-80
2023/12/28 10:13:57;;;;;;;13.35;3.10;;;;;;;12.37;72.29;99278.44;5052163;28;20122;-80
2023/12/28 10:16:24;;;;;;;22.23;3.88;;;;;;;12.38;71.72;99288.03;5052360;28;20088;-78
2023/12/28 10:18:50;;;;;;;16.10;3.20;;;;;;;12.42;72.03;99285.16;5051889;28;20126;-79
2023/12/28 10:21:17;;;;;;;18.42;2.90;;;;;;;12.42;71.41;99264.91;5051876;28;20049;-79
2023/12/28 10:23:44;;;;;;;15.30;3.22;;;;;;;12.46;71.77;99286.63;5051114;28;20055;-81
2023/12/28 10:26:11;;;;;;;15.13;3.38;;;;;;;12.44;71.39;99281.47;5050682;28;20136;-79
2023/12/28 10:28:39;;;;;;;16.27;3.13;;;;;;;12.48;71.70;99295.28;5077918;28;20439;-79
2023/12/28 10:31:07;;;;;;;19.02;3.22;;;;;;;12.45;70.76;99285.78;5041368;28;20141;-80
2023/12/28 10:33:36;;;;;;;14.77;3.22;;;;;;;12.43;70.69;99276.28;5050509;28;20512;-79
2023/12/28 10:36:08;;;;;;;11.30;2.75;;;;;;;12.44;69.42;99293.81;5050608;28;20155;-79
2023/12/28 10:38:37;;;;;;;14.57;2.70;;;;;;;12.45;71.17;99277.88;5051218;28;20088;-80
2023/12/28 10:41:07;;;;;;;15.93;3.30;;;;;;;12.42;69.31;99262.28;5051372;28;20597;-81
2023/12/28 10:43:45;;;;;;;23.23;4.18;;;;;;;12.38;66.69;99256.34;5051700;28;20049;-79
2023/12/28 10:46:21;;;;;;;12.32;2.83;;;;;;;12.42;70.12;99269.34;5051838;28;20482;-80
2023/12/28 10:48:52;;;;;;;16.17;3.00;;;;;;;12.47;70.14;99285.69;5049931;28;20131;-79
2023/12/28 10:51:23;;;;;;;19.13;3.70;;;;;;;12.46;69.40;99294.56;5050020;28;20126;-81
2023/12/28 10:53:59;;;;;;;19.08;2.97;;;;;;;12.38;66.19;99272.19;5051842;28;20049;-79
2023/12/28 10:56:31;;;;;;;17.13;2.80;;;;;;;12.38;65.58;99282.75;5051555;28;20056;-79
2023/12/28 10:59:16;;;;;;;18.35;3.55;;;;;;;12.41;66.39;99286.97;5049648;28;20049;-81
2023/12/28 11:01:47;;;;;;;14.13;3.13;;;;;;;12.45;68.20;99271.75;5043752;28;20145;-80
2023/12/28 11:04:32;;;;;;;15.48;3.15;;;;;;;12.47;69.01;99264.56;5050690;28;20059;-80
2023/12/28 11:07:01;;;;;;;19.08;3.13;;;;;;;12.51;70.73;99255.47;5050950;28;20110;-80
2023/12/28 11:09:31;;;;;;;18.38;2.83;;;;;;;12.50;69.66;99252.00;5050304;28;20057;-79
2023/12/28 11:11:59;;;;;;;14.32;2.85;;;;;;;12.51;70.23;99247.53;5050399;28;20053;-80
2023/12/28 11:14:27;;;;;;;17.25;2.92;;;;;;;12.49;69.26;99250.28;5050923;28;20083;-84
2023/12/28 11:16:54;;;;;;;12.43;2.78;;;;;;;12.50;69.78;99245.88;5049534;28;20080;-82
2023/12/28 11:19:22;;;;;;;15.23;3.13;;;;;;;12.49;70.08;99255.56;5050680;28;20078;-79
2023/12/28 11:21:50;;;;;;;14.77;3.03;;;;;;;12.49;70.21;99258.22;5050296;28;20323;-80
2023/12/28 11:24:18;;;;;;;16.83;3.33;;;;;;;12.46;70.01;99274.28;5049509;28;20132;-79
2023/12/28 11:26:51;;;;;;;15.00;3.28;;;;;;;12.45;70.41;99258.56;5049343;28;20129;-80
2023/12/28 11:29:19;;;;;;;19.70;3.15;;;;;;;12.46;70.20;99254.97;5050493;28;20584;-80
2023/12/28 11:31:59;;;;;;;20.58;3.40;;;;;;;12.44;68.06;99262.13;5049267;28;20163;-81
2023/12/28 11:34:29;;;;;;;11.77;2.60;;;;;;;12.48;71.02;99259.16;5049310;28;20095;-79
2023/12/28 11:36:57;;;;;;;15.05;3.72;;;;;;;12.45;70.37;99258.56;5050614;28;20053;-80
2023/12/28 11:39:35;;;;;;;18.02;3.58;;;;;;;12.42;68.70;99257.00;5050416;28;20052;-81
2023/12/28 11:42:04;;;;;;;13.20;2.78;;;;;;;12.45;70.55;99243.53;5048985;28;20045;-80